sensor_id;sensor_type;location;lat;lon;timestamp;P1;durP1;ratioP1;P2;durP2;ratioP2
75195;SDS011;63773;42.282;22.782;2023-05-21T00:01:35;8.57;;;4.57;;
75195;SDS011;63773;42.282;22.782;2023-05-21T00:04:01;7.57;;;4.50;;
75195;SDS011;63773;42.282;22.782;2023-05-21T00:06:27;10.55;;;5.00;;
75195;SDS011;63773;42.282;22.782;2023-05-21T00:08:53;8.82;;;4.20;;
75195;SDS011;63773;42.282;22.782;2023-05-21T00:11:18;9.80;;;4.85;;
75195;SDS011;63773;42.282;22.782;2023-05-21T00:13:43;8.85;;;4.47;;
75195;SDS011;63773;42.282;22.782;2023-05-21T00:16:09;9.48;;;4.60;;
75195;SDS011;63773;42.282;22.782;2023-05-21T00:18:35;9.45;;;4.00;;
75195;SDS011;63773;42.282;22.782;2023-05-21T00:21:03;10.63;;;4.82;;
75195;SDS011;63773;42.282;22.782;2023-05-21T00:23:29;8.40;;;4.70;;
75195;SDS011;63773;42.282;22.782;2023-05-21T00:28:22;7.85;;;3.80;;
75195;SDS011;63773;42.282;22.782;2023-05-21T00:30:47;6.95;;;4.60;;
75195;SDS011;63773;42.282;22.782;2023-05-21T00:33:13;8.95;;;4.68;;
75195;SDS011;63773;42.282;22.782;2023-05-21T00:35:38;11.18;;;4.45;;
75195;SDS011;63773;42.282;22.782;2023-05-21T00:38:04;9.20;;;4.72;;
75195;SDS011;63773;42.282;22.782;2023-05-21T00:40:33;5.60;;;3.95;;
75195;SDS011;63773;42.282;22.782;2023-05-21T00:43:00;11.25;;;5.68;;
75195;SDS011;63773;42.282;22.782;2023-05-21T00:45:26;7.35;;;4.70;;
75195;SDS011;63773;42.282;22.782;2023-05-21T00:47:51;9.40;;;5.10;;
75195;SDS011;63773;42.282;22.782;2023-05-21T00:50:19;6.68;;;4.50;;
75195;SDS011;63773;42.282;22.782;2023-05-21T00:52:45;8.90;;;4.07;;
75195;SDS011;63773;42.282;22.782;2023-05-21T00:55:13;9.55;;;4.57;;
75195;SDS011;63773;42.282;22.782;2023-05-21T00:57:38;8.85;;;4.90;;
75195;SDS011;63773;42.282;22.782;2023-05-21T01:00:05;7.13;;;3.90;;
75195;SDS011;63773;42.282;22.782;2023-05-21T01:02:33;8.02;;;4.47;;
75195;SDS011;63773;42.282;22.782;2023-05-21T01:05:01;8.38;;;4.35;;
75195;SDS011;63773;42.282;22.782;2023-05-21T01:09:53;12.57;;;5.00;;
75195;SDS011;63773;42.282;22.782;2023-05-21T01:12:18;7.65;;;4.95;;
75195;SDS011;63773;42.282;22.782;2023-05-21T01:14:45;9.20;;;4.53;;
75195;SDS011;63773;42.282;22.782;2023-05-21T01:17:11;7.03;;;4.45;;
75195;SDS011;63773;42.282;22.782;2023-05-21T01:19:37;9.88;;;4.68;;
75195;SDS011;63773;42.282;22.782;2023-05-21T01:22:04;7.65;;;4.30;;
75195;SDS011;63773;42.282;22.782;2023-05-21T01:24:31;6.75;;;4.47;;
75195;SDS011;63773;42.282;22.782;2023-05-21T01:26:57;8.95;;;4.97;;
75195;SDS011;63773;42.282;22.782;2023-05-21T01:29:24;7.78;;;5.10;;
75195;SDS011;63773;42.282;22.782;2023-05-21T01:34:47;8.57;;;4.72;;
75195;SDS011;63773;42.282;22.782;2023-05-21T01:37:26;7.90;;;4.78;;
75195;SDS011;63773;42.282;22.782;2023-05-21T01:40:20;7.15;;;4.50;;
75195;SDS011;63773;42.282;22.782;2023-05-21T01:42:47;10.05;;;4.95;;
75195;SDS011;63773;42.282;22.782;2023-05-21T01:45:16;7.97;;;4.50;;
75195;SDS011;63773;42.282;22.782;2023-05-21T01:47:43;9.02;;;4.15;;
75195;SDS011;63773;42.282;22.782;2023-05-21T01:50:13;8.98;;;4.75;;
75195;SDS011;63773;42.282;22.782;2023-05-21T01:52:46;8.95;;;4.72;;
75195;SDS011;63773;42.282;22.782;2023-05-21T01:55:22;7.53;;;4.82;;
75195;SDS011;63773;42.282;22.782;2023-05-21T01:57:53;8.07;;;4.32;;
75195;SDS011;63773;42.282;22.782;2023-05-21T02:00:20;7.53;;;4.82;;
75195;SDS011;63773;42.282;22.782;2023-05-21T02:02:47;9.00;;;5.05;;
75195;SDS011;63773;42.282;22.782;2023-05-21T02:05:12;8.75;;;4.25;;
75195;SDS011;63773;42.282;22.782;2023-05-21T02:07:38;8.55;;;4.47;;
75195;SDS011;63773;42.282;22.782;2023-05-21T02:10:04;7.13;;;4.35;;
75195;SDS011;63773;42.282;22.782;2023-05-21T02:12:30;9.77;;;4.85;;
75195;SDS011;63773;42.282;22.782;2023-05-21T02:14:56;9.68;;;4.50;;
75195;SDS011;63773;42.282;22.782;2023-05-21T02:17:21;7.57;;;4.53;;
75195;SDS011;63773;42.282;22.782;2023-05-21T02:19:48;9.25;;;4.75;;
75195;SDS011;63773;42.282;22.782;2023-05-21T02:22:14;7.70;;;4.22;;
75195;SDS011;63773;42.282;22.782;2023-05-21T02:24:40;8.40;;;4.45;;
75195;SDS011;63773;42.282;22.782;2023-05-21T02:27:06;7.90;;;4.70;;
75195;SDS011;63773;42.282;22.782;2023-05-21T02:29:34;8.25;;;4.90;;
75195;SDS011;63773;42.282;22.782;2023-05-21T02:32:02;7.45;;;4.50;;
75195;SDS011;63773;42.282;22.782;2023-05-21T02:34:28;8.23;;;3.90;;
75195;SDS011;63773;42.282;22.782;2023-05-21T02:36:57;8.43;;;4.50;;
75195;SDS011;63773;42.282;22.782;2023-05-21T02:39:22;8.23;;;5.10;;
75195;SDS011;63773;42.282;22.782;2023-05-21T02:41:48;8.07;;;3.95;;
75195;SDS011;63773;42.282;22.782;2023-05-21T02:44:13;8.05;;;4.20;;
75195;SDS011;63773;42.282;22.782;2023-05-21T02:46:39;7.00;;;3.95;;
75195;SDS011;63773;42.282;22.782;2023-05-21T02:49:05;7.30;;;4.45;;
75195;SDS011;63773;42.282;22.782;2023-05-21T02:51:30;8.57;;;5.07;;
75195;SDS011;63773;42.282;22.782;2023-05-21T02:53:56;13.32;;;5.40;;
75195;SDS011;63773;42.282;22.782;2023-05-21T02:56:21;7.65;;;4.22;;
75195;SDS011;63773;42.282;22.782;2023-05-21T02:58:47;8.23;;;4.45;;
75195;SDS011;63773;42.282;22.782;2023-05-21T03:01:13;8.10;;;4.90;;
75195;SDS011;63773;42.282;22.782;2023-05-21T03:03:38;7.13;;;4.35;;
75195;SDS011;63773;42.282;22.782;2023-05-21T03:06:04;8.48;;;3.72;;
75195;SDS011;63773;42.282;22.782;2023-05-21T03:08:29;8.55;;;5.07;;
75195;SDS011;63773;42.282;22.782;2023-05-21T03:10:55;10.27;;;4.68;;
75195;SDS011;63773;42.282;22.782;2023-05-21T03:13:21;7.32;;;4.97;;
75195;SDS011;63773;42.282;22.782;2023-05-21T03:15:47;5.90;;;4.00;;
75195;SDS011;63773;42.282;22.782;2023-05-21T03:18:12;9.30;;;4.55;;
75195;SDS011;63773;42.282;22.782;2023-05-21T03:20:38;8.32;;;4.38;;
75195;SDS011;63773;42.282;22.782;2023-05-21T03:23:08;7.35;;;4.22;;
75195;SDS011;63773;42.282;22.782;2023-05-21T03:25:36;11.32;;;5.10;;
75195;SDS011;63773;42.282;22.782;2023-05-21T03:28:02;8.20;;;4.78;;
75195;SDS011;63773;42.282;22.782;2023-05-21T03:30:27;8.95;;;4.40;;
75195;SDS011;63773;42.282;22.782;2023-05-21T03:32:53;7.55;;;4.50;;
75195;SDS011;63773;42.282;22.782;2023-05-21T03:35:20;8.38;;;4.88;;
75195;SDS011;63773;42.282;22.782;2023-05-21T03:37:45;8.73;;;4.07;;
75195;SDS011;63773;42.282;22.782;2023-05-21T03:40:11;9.30;;;4.68;;
75195;SDS011;63773;42.282;22.782;2023-05-21T03:42:37;7.07;;;4.28;;
75195;SDS011;63773;42.282;22.782;2023-05-21T03:45:02;8.68;;;4.13;;
75195;SDS011;63773;42.282;22.782;2023-05-21T03:47:28;7.85;;;4.40;;
75195;SDS011;63773;42.282;22.782;2023-05-21T03:49:53;7.10;;;3.95;;
75195;SDS011;63773;42.282;22.782;2023-05-21T03:52:19;8.85;;;3.80;;
75195;SDS011;63773;42.282;22.782;2023-05-21T03:54:44;7.88;;;4.07;;
75195;SDS011;63773;42.282;22.782;2023-05-21T03:57:10;7.30;;;4.03;;
75195;SDS011;63773;42.282;22.782;2023-05-21T03:59:35;6.90;;;3.67;;
75195;SDS011;63773;42.282;22.782;2023-05-21T04:02:02;7.57;;;4.18;;
75195;SDS011;63773;42.282;22.782;2023-05-21T04:04:28;7.65;;;3.85;;
75195;SDS011;63773;42.282;22.782;2023-05-21T04:06:53;6.35;;;3.83;;
75195;SDS011;63773;42.282;22.782;2023-05-21T04:09:19;9.90;;;3.95;;
75195;SDS011;63773;42.282;22.782;2023-05-21T04:11:45;7.25;;;3.95;;
75195;SDS011;63773;42.282;22.782;2023-05-21T04:14:11;6.43;;;4.18;;
75195;SDS011;63773;42.282;22.782;2023-05-21T04:16:37;9.57;;;4.28;;
75195;SDS011;63773;42.282;22.782;2023-05-21T04:19:03;6.57;;;4.13;;
75195;SDS011;63773;42.282;22.782;2023-05-21T04:21:29;7.93;;;4.72;;
75195;SDS011;63773;42.282;22.782;2023-05-21T04:23:56;5.90;;;4.10;;
75195;SDS011;63773;42.282;22.782;2023-05-21T04:26:22;7.65;;;4.22;;
75195;SDS011;63773;42.282;22.782;2023-05-21T04:28:48;9.80;;;4.10;;
75195;SDS011;63773;42.282;22.782;2023-05-21T04:31:14;7.47;;;3.85;;
75195;SDS011;63773;42.282;22.782;2023-05-21T04:33:40;8.30;;;4.68;;
75195;SDS011;63773;42.282;22.782;2023-05-21T04:36:09;8.90;;;4.10;;
75195;SDS011;63773;42.282;22.782;2023-05-21T04:38:35;6.60;;;3.72;;
75195;SDS011;63773;42.282;22.782;2023-05-21T04:41:01;6.88;;;3.83;;
75195;SDS011;63773;42.282;22.782;2023-05-21T04:43:28;7.63;;;4.00;;
75195;SDS011;63773;42.282;22.782;2023-05-21T04:45:54;7.20;;;4.35;;
75195;SDS011;63773;42.282;22.782;2023-05-21T04:48:20;9.70;;;4.60;;
75195;SDS011;63773;42.282;22.782;2023-05-21T04:50:48;6.90;;;4.30;;
75195;SDS011;63773;42.282;22.782;2023-05-21T04:53:14;12.73;;;4.05;;
75195;SDS011;63773;42.282;22.782;2023-05-21T04:55:40;7.18;;;3.78;;
75195;SDS011;63773;42.282;22.782;2023-05-21T04:58:05;8.05;;;3.90;;
75195;SDS011;63773;42.282;22.782;2023-05-21T05:00:34;7.28;;;3.92;;
75195;SDS011;63773;42.282;22.782;2023-05-21T05:03:01;7.50;;;3.95;;
75195;SDS011;63773;42.282;22.782;2023-05-21T05:05:27;8.77;;;3.85;;
75195;SDS011;63773;42.282;22.782;2023-05-21T05:07:52;7.88;;;4.10;;
75195;SDS011;63773;42.282;22.782;2023-05-21T05:10:18;9.75;;;4.18;;
75195;SDS011;63773;42.282;22.782;2023-05-21T05:12:43;12.07;;;4.70;;
75195;SDS011;63773;42.282;22.782;2023-05-21T05:15:09;6.05;;;3.92;;
75195;SDS011;63773;42.282;22.782;2023-05-21T05:17:34;7.45;;;3.60;;
75195;SDS011;63773;42.282;22.782;2023-05-21T05:20:00;10.63;;;4.40;;
75195;SDS011;63773;42.282;22.782;2023-05-21T05:22:25;9.30;;;4.63;;
75195;SDS011;63773;42.282;22.782;2023-05-21T05:24:51;7.55;;;4.45;;
75195;SDS011;63773;42.282;22.782;2023-05-21T05:27:16;6.68;;;3.83;;
75195;SDS011;63773;42.282;22.782;2023-05-21T05:29:43;8.02;;;3.95;;
75195;SDS011;63773;42.282;22.782;2023-05-21T05:32:09;8.50;;;3.83;;
75195;SDS011;63773;42.282;22.782;2023-05-21T05:34:34;8.98;;;4.70;;
75195;SDS011;63773;42.282;22.782;2023-05-21T05:37:00;9.13;;;4.18;;
75195;SDS011;63773;42.282;22.782;2023-05-21T05:39:27;10.90;;;4.22;;
75195;SDS011;63773;42.282;22.782;2023-05-21T05:41:52;14.73;;;5.50;;
75195;SDS011;63773;42.282;22.782;2023-05-21T05:44:18;9.35;;;4.72;;
75195;SDS011;63773;42.282;22.782;2023-05-21T05:46:43;7.35;;;4.05;;
75195;SDS011;63773;42.282;22.782;2023-05-21T05:49:09;6.45;;;4.00;;
75195;SDS011;63773;42.282;22.782;2023-05-21T05:51:34;6.97;;;3.85;;
75195;SDS011;63773;42.282;22.782;2023-05-21T05:54:00;11.52;;;4.10;;
75195;SDS011;63773;42.282;22.782;2023-05-21T05:56:25;7.47;;;4.55;;
75195;SDS011;63773;42.282;22.782;2023-05-21T05:58:51;8.27;;;4.10;;
75195;SDS011;63773;42.282;22.782;2023-05-21T06:01:17;7.85;;;3.92;;
75195;SDS011;63773;42.282;22.782;2023-05-21T06:03:43;9.65;;;3.97;;
75195;SDS011;63773;42.282;22.782;2023-05-21T06:06:08;10.93;;;3.60;;
75195;SDS011;63773;42.282;22.782;2023-05-21T06:08:34;7.57;;;3.58;;
75195;SDS011;63773;42.282;22.782;2023-05-21T06:11:00;8.60;;;4.35;;
75195;SDS011;63773;42.282;22.782;2023-05-21T06:13:26;7.05;;;3.75;;
75195;SDS011;63773;42.282;22.782;2023-05-21T06:15:52;8.23;;;4.07;;
75195;SDS011;63773;42.282;22.782;2023-05-21T06:18:17;9.18;;;3.47;;
75195;SDS011;63773;42.282;22.782;2023-05-21T06:20:43;6.80;;;3.42;;
75195;SDS011;63773;42.282;22.782;2023-05-21T06:23:08;8.85;;;4.03;;
75195;SDS011;63773;42.282;22.782;2023-05-21T06:25:34;7.95;;;3.80;;
75195;SDS011;63773;42.282;22.782;2023-05-21T06:27:59;9.52;;;4.75;;
75195;SDS011;63773;42.282;22.782;2023-05-21T06:30:25;9.65;;;4.03;;
75195;SDS011;63773;42.282;22.782;2023-05-21T06:32:50;8.15;;;3.88;;
75195;SDS011;63773;42.282;22.782;2023-05-21T06:35:15;6.65;;;3.72;;
75195;SDS011;63773;42.282;22.782;2023-05-21T06:37:41;6.82;;;3.65;;
75195;SDS011;63773;42.282;22.782;2023-05-21T06:40:07;7.18;;;3.97;;
75195;SDS011;63773;42.282;22.782;2023-05-21T06:42:33;7.60;;;3.42;;
75195;SDS011;63773;42.282;22.782;2023-05-21T06:44:58;6.18;;;4.07;;
75195;SDS011;63773;42.282;22.782;2023-05-21T06:47:24;9.95;;;3.92;;
75195;SDS011;63773;42.282;22.782;2023-05-21T06:49:49;7.78;;;3.83;;
75195;SDS011;63773;42.282;22.782;2023-05-21T06:52:15;7.57;;;4.00;;
75195;SDS011;63773;42.282;22.782;2023-05-21T06:54:40;8.20;;;4.28;;
75195;SDS011;63773;42.282;22.782;2023-05-21T06:57:06;7.40;;;3.97;;
75195;SDS011;63773;42.282;22.782;2023-05-21T06:59:32;10.30;;;4.45;;
75195;SDS011;63773;42.282;22.782;2023-05-21T07:01:57;7.28;;;3.65;;
75195;SDS011;63773;42.282;22.782;2023-05-21T07:04:23;6.22;;;3.97;;
75195;SDS011;63773;42.282;22.782;2023-05-21T07:06:49;9.32;;;4.35;;
75195;SDS011;63773;42.282;22.782;2023-05-21T07:09:16;6.10;;;4.03;;
75195;SDS011;63773;42.282;22.782;2023-05-21T07:11:42;6.38;;;3.47;;
75195;SDS011;63773;42.282;22.782;2023-05-21T07:14:08;6.40;;;3.42;;
75195;SDS011;63773;42.282;22.782;2023-05-21T07:16:33;5.78;;;3.70;;
75195;SDS011;63773;42.282;22.782;2023-05-21T07:18:59;6.65;;;3.83;;
75195;SDS011;63773;42.282;22.782;2023-05-21T07:21:24;8.43;;;3.92;;
75195;SDS011;63773;42.282;22.782;2023-05-21T07:23:50;5.78;;;3.88;;
75195;SDS011;63773;42.282;22.782;2023-05-21T07:26:15;6.72;;;3.15;;
75195;SDS011;63773;42.282;22.782;2023-05-21T07:28:41;8.65;;;3.95;;
75195;SDS011;63773;42.282;22.782;2023-05-21T07:31:06;6.53;;;3.75;;
75195;SDS011;63773;42.282;22.782;2023-05-21T07:33:32;7.45;;;3.83;;
75195;SDS011;63773;42.282;22.782;2023-05-21T07:35:58;6.53;;;4.03;;
75195;SDS011;63773;42.282;22.782;2023-05-21T07:38:23;5.90;;;3.05;;
75195;SDS011;63773;42.282;22.782;2023-05-21T07:40:49;7.15;;;3.78;;
75195;SDS011;63773;42.282;22.782;2023-05-21T07:43:14;5.90;;;3.03;;
75195;SDS011;63773;42.282;22.782;2023-05-21T07:45:39;7.90;;;3.13;;
75195;SDS011;63773;42.282;22.782;2023-05-21T07:48:05;5.68;;;3.30;;
75195;SDS011;63773;42.282;22.782;2023-05-21T07:50:30;7.30;;;3.60;;
75195;SDS011;63773;42.282;22.782;2023-05-21T07:52:56;6.55;;;3.70;;
75195;SDS011;63773;42.282;22.782;2023-05-21T07:55:21;5.18;;;3.22;;
75195;SDS011;63773;42.282;22.782;2023-05-21T07:57:47;6.65;;;4.05;;
75195;SDS011;63773;42.282;22.782;2023-05-21T08:00:12;11.05;;;3.67;;
75195;SDS011;63773;42.282;22.782;2023-05-21T08:02:38;8.75;;;3.63;;
75195;SDS011;63773;42.282;22.782;2023-05-21T08:05:24;6.25;;;3.63;;
75195;SDS011;63773;42.282;22.782;2023-05-21T08:07:49;8.25;;;3.35;;
75195;SDS011;63773;42.282;22.782;2023-05-21T08:10:15;8.15;;;3.50;;
75195;SDS011;63773;42.282;22.782;2023-05-21T08:12:40;8.73;;;3.60;;
75195;SDS011;63773;42.282;22.782;2023-05-21T08:15:06;8.43;;;3.25;;
75195;SDS011;63773;42.282;22.782;2023-05-21T08:17:31;7.50;;;3.40;;
75195;SDS011;63773;42.282;22.782;2023-05-21T08:19:57;8.18;;;3.53;;
75195;SDS011;63773;42.282;22.782;2023-05-21T08:22:22;8.02;;;2.90;;
75195;SDS011;63773;42.282;22.782;2023-05-21T08:24:48;6.82;;;2.55;;
75195;SDS011;63773;42.282;22.782;2023-05-21T08:27:13;10.00;;;3.90;;
75195;SDS011;63773;42.282;22.782;2023-05-21T08:29:40;7.20;;;3.13;;
75195;SDS011;63773;42.282;22.782;2023-05-21T08:32:06;4.72;;;2.67;;
75195;SDS011;63773;42.282;22.782;2023-05-21T08:34:33;7.20;;;3.20;;
75195;SDS011;63773;42.282;22.782;2023-05-21T08:36:59;9.25;;;3.95;;
75195;SDS011;63773;42.282;22.782;2023-05-21T08:39:25;6.60;;;3.53;;
75195;SDS011;63773;42.282;22.782;2023-05-21T08:41:50;5.50;;;3.00;;
75195;SDS011;63773;42.282;22.782;2023-05-21T08:44:21;8.88;;;4.07;;
75195;SDS011;63773;42.282;22.782;2023-05-21T08:46:50;6.97;;;2.80;;
75195;SDS011;63773;42.282;22.782;2023-05-21T08:49:16;6.57;;;3.70;;
75195;SDS011;63773;42.282;22.782;2023-05-21T08:51:43;5.57;;;2.90;;
75195;SDS011;63773;42.282;22.782;2023-05-21T08:54:10;8.30;;;4.35;;
75195;SDS011;63773;42.282;22.782;2023-05-21T08:56:38;4.95;;;2.88;;
75195;SDS011;63773;42.282;22.782;2023-05-21T08:59:09;6.63;;;3.20;;
75195;SDS011;63773;42.282;22.782;2023-05-21T09:01:35;7.32;;;3.42;;
75195;SDS011;63773;42.282;22.782;2023-05-21T09:11:23;7.03;;;3.30;;
75195;SDS011;63773;42.282;22.782;2023-05-21T09:13:50;6.47;;;3.03;;
75195;SDS011;63773;42.282;22.782;2023-05-21T09:16:16;6.07;;;2.85;;
75195;SDS011;63773;42.282;22.782;2023-05-21T09:18:41;8.18;;;3.47;;
75195;SDS011;63773;42.282;22.782;2023-05-21T09:21:23;7.95;;;3.05;;
75195;SDS011;63773;42.282;22.782;2023-05-21T09:23:56;13.40;;;2.92;;
75195;SDS011;63773;42.282;22.782;2023-05-21T09:31:13;6.15;;;2.85;;
75195;SDS011;63773;42.282;22.782;2023-05-21T09:33:44;8.63;;;2.58;;
75195;SDS011;63773;42.282;22.782;2023-05-21T09:36:11;8.27;;;2.80;;
75195;SDS011;63773;42.282;22.782;2023-05-21T09:38:37;8.02;;;3.25;;
75195;SDS011;63773;42.282;22.782;2023-05-21T09:41:05;7.82;;;2.97;;
75195;SDS011;63773;42.282;22.782;2023-05-21T09:43:31;5.45;;;3.13;;
75195;SDS011;63773;42.282;22.782;2023-05-21T09:45:56;5.97;;;3.10;;
75195;SDS011;63773;42.282;22.782;2023-05-21T09:48:33;7.05;;;2.88;;
75195;SDS011;63773;42.282;22.782;2023-05-21T09:56:20;7.03;;;3.15;;
75195;SDS011;63773;42.282;22.782;2023-05-21T09:58:47;6.80;;;3.35;;
75195;SDS011;63773;42.282;22.782;2023-05-21T10:01:12;6.32;;;3.20;;
75195;SDS011;63773;42.282;22.782;2023-05-21T10:03:38;7.63;;;2.97;;
75195;SDS011;63773;42.282;22.782;2023-05-21T10:06:07;6.05;;;3.25;;
75195;SDS011;63773;42.282;22.782;2023-05-21T10:08:34;6.30;;;2.95;;
75195;SDS011;63773;42.282;22.782;2023-05-21T10:11:03;6.50;;;3.25;;
75195;SDS011;63773;42.282;22.782;2023-05-21T10:13:29;9.07;;;3.30;;
75195;SDS011;63773;42.282;22.782;2023-05-21T10:15:58;9.85;;;3.38;;
75195;SDS011;63773;42.282;22.782;2023-05-21T10:18:27;5.95;;;3.05;;
75195;SDS011;63773;42.282;22.782;2023-05-21T10:20:54;6.28;;;3.38;;
75195;SDS011;63773;42.282;22.782;2023-05-21T10:23:21;7.05;;;3.25;;
75195;SDS011;63773;42.282;22.782;2023-05-21T10:25:48;8.13;;;3.65;;
75195;SDS011;63773;42.282;22.782;2023-05-21T10:28:16;8.43;;;3.30;;
75195;SDS011;63773;42.282;22.782;2023-05-21T10:30:43;7.10;;;3.03;;
75195;SDS011;63773;42.282;22.782;2023-05-21T10:33:08;8.73;;;3.10;;
75195;SDS011;63773;42.282;22.782;2023-05-21T10:35:37;7.95;;;3.80;;
75195;SDS011;63773;42.282;22.782;2023-05-21T10:40:30;6.20;;;2.75;;
75195;SDS011;63773;42.282;22.782;2023-05-21T10:43:09;6.75;;;2.67;;
75195;SDS011;63773;42.282;22.782;2023-05-21T10:51:41;6.30;;;3.47;;
75195;SDS011;63773;42.282;22.782;2023-05-21T10:57:08;5.22;;;3.15;;
75195;SDS011;63773;42.282;22.782;2023-05-21T11:02:06;5.45;;;3.15;;
75195;SDS011;63773;42.282;22.782;2023-05-21T11:04:33;7.45;;;2.55;;
75195;SDS011;63773;42.282;22.782;2023-05-21T11:07:03;13.52;;;3.80;;
75195;SDS011;63773;42.282;22.782;2023-05-21T11:09:30;6.30;;;2.88;;
75195;SDS011;63773;42.282;22.782;2023-05-21T11:11:56;8.02;;;3.03;;
75195;SDS011;63773;42.282;22.782;2023-05-21T11:16:51;6.43;;;2.75;;
75195;SDS011;63773;42.282;22.782;2023-05-21T11:19:16;6.57;;;2.67;;
75195;SDS011;63773;42.282;22.782;2023-05-21T11:21:42;6.70;;;2.67;;
75195;SDS011;63773;42.282;22.782;2023-05-21T11:24:17;4.47;;;2.65;;
75195;SDS011;63773;42.282;22.782;2023-05-21T11:29:12;8.77;;;2.80;;
75195;SDS011;63773;42.282;22.782;2023-05-21T11:31:39;9.07;;;2.97;;
75195;SDS011;63773;42.282;22.782;2023-05-21T11:36:38;8.15;;;3.28;;
75195;SDS011;63773;42.282;22.782;2023-05-21T11:41:57;6.28;;;2.70;;
75195;SDS011;63773;42.282;22.782;2023-05-21T11:44:42;6.18;;;2.78;;
75195;SDS011;63773;42.282;22.782;2023-05-21T11:47:12;6.20;;;2.63;;
75195;SDS011;63773;42.282;22.782;2023-05-21T11:49:39;4.68;;;2.40;;
75195;SDS011;63773;42.282;22.782;2023-05-21T11:52:06;5.68;;;2.63;;
75195;SDS011;63773;42.282;22.782;2023-05-21T11:54:38;5.85;;;3.03;;
75195;SDS011;63773;42.282;22.782;2023-05-21T11:57:05;8.88;;;3.00;;
75195;SDS011;63773;42.282;22.782;2023-05-21T11:59:32;8.35;;;3.08;;
75195;SDS011;63773;42.282;22.782;2023-05-21T12:04:34;6.95;;;2.95;;
75195;SDS011;63773;42.282;22.782;2023-05-21T12:07:03;6.57;;;2.80;;
75195;SDS011;63773;42.282;22.782;2023-05-21T12:09:37;6.20;;;2.78;;
75195;SDS011;63773;42.282;22.782;2023-05-21T12:12:09;6.55;;;3.40;;
75195;SDS011;63773;42.282;22.782;2023-05-21T12:14:37;9.18;;;3.53;;
75195;SDS011;63773;42.282;22.782;2023-05-21T12:17:03;8.07;;;2.85;;
75195;SDS011;63773;42.282;22.782;2023-05-21T12:19:33;9.05;;;3.30;;
75195;SDS011;63773;42.282;22.782;2023-05-21T12:22:00;8.35;;;3.30;;
75195;SDS011;63773;42.282;22.782;2023-05-21T12:24:29;10.32;;;3.70;;
75195;SDS011;63773;42.282;22.782;2023-05-21T12:26:58;7.95;;;3.00;;
75195;SDS011;63773;42.282;22.782;2023-05-21T12:29:29;8.18;;;3.28;;
75195;SDS011;63773;42.282;22.782;2023-05-21T12:31:58;9.57;;;3.53;;
75195;SDS011;63773;42.282;22.782;2023-05-21T12:34:43;7.03;;;3.45;;
75195;SDS011;63773;42.282;22.782;2023-05-21T12:37:19;6.60;;;3.15;;
75195;SDS011;63773;42.282;22.782;2023-05-21T12:39:46;7.85;;;3.20;;
75195;SDS011;63773;42.282;22.782;2023-05-21T12:42:13;6.05;;;3.35;;
75195;SDS011;63773;42.282;22.782;2023-05-21T12:44:40;7.65;;;3.45;;
75195;SDS011;63773;42.282;22.782;2023-05-21T12:47:08;7.03;;;3.25;;
75195;SDS011;63773;42.282;22.782;2023-05-21T12:52:07;5.10;;;2.95;;
75195;SDS011;63773;42.282;22.782;2023-05-21T12:54:35;6.75;;;3.08;;
75195;SDS011;63773;42.282;22.782;2023-05-21T12:57:05;8.18;;;3.30;;
75195;SDS011;63773;42.282;22.782;2023-05-21T12:59:56;6.32;;;2.95;;
75195;SDS011;63773;42.282;22.782;2023-05-21T13:02:26;6.40;;;3.00;;
75195;SDS011;63773;42.282;22.782;2023-05-21T13:04:58;5.60;;;3.22;;
75195;SDS011;63773;42.282;22.782;2023-05-21T13:07:26;5.68;;;3.13;;
75195;SDS011;63773;42.282;22.782;2023-05-21T13:09:54;7.03;;;3.28;;
75195;SDS011;63773;42.282;22.782;2023-05-21T13:12:20;8.55;;;2.90;;
75195;SDS011;63773;42.282;22.782;2023-05-21T13:14:50;6.55;;;3.05;;
75195;SDS011;63773;42.282;22.782;2023-05-21T13:17:17;7.57;;;2.85;;
75195;SDS011;63773;42.282;22.782;2023-05-21T13:19:55;6.80;;;3.13;;
75195;SDS011;63773;42.282;22.782;2023-05-21T13:22:39;5.88;;;3.22;;
75195;SDS011;63773;42.282;22.782;2023-05-21T13:25:07;5.50;;;3.13;;
75195;SDS011;63773;42.282;22.782;2023-05-21T13:27:33;7.68;;;3.38;;
75195;SDS011;63773;42.282;22.782;2023-05-21T13:30:00;5.88;;;3.20;;
75195;SDS011;63773;42.282;22.782;2023-05-21T13:32:26;6.25;;;3.13;;
75195;SDS011;63773;42.282;22.782;2023-05-21T13:34:51;7.28;;;3.05;;
75195;SDS011;63773;42.282;22.782;2023-05-21T13:37:17;6.40;;;3.28;;
75195;SDS011;63773;42.282;22.782;2023-05-21T13:39:44;4.88;;;3.35;;
75195;SDS011;63773;42.282;22.782;2023-05-21T13:42:09;8.05;;;3.47;;
75195;SDS011;63773;42.282;22.782;2023-05-21T13:44:35;7.63;;;3.22;;
75195;SDS011;63773;42.282;22.782;2023-05-21T13:47:06;6.93;;;3.25;;
75195;SDS011;63773;42.282;22.782;2023-05-21T13:49:34;9.57;;;3.25;;
75195;SDS011;63773;42.282;22.782;2023-05-21T13:52:00;7.32;;;3.10;;
75195;SDS011;63773;42.282;22.782;2023-05-21T13:54:26;8.52;;;3.63;;
75195;SDS011;63773;42.282;22.782;2023-05-21T13:56:51;8.82;;;4.05;;
75195;SDS011;63773;42.282;22.782;2023-05-21T13:59:17;7.55;;;3.53;;
75195;SDS011;63773;42.282;22.782;2023-05-21T14:01:43;8.75;;;3.45;;
75195;SDS011;63773;42.282;22.782;2023-05-21T14:04:09;8.18;;;3.63;;
75195;SDS011;63773;42.282;22.782;2023-05-21T14:06:37;10.65;;;3.30;;
75195;SDS011;63773;42.282;22.782;2023-05-21T14:09:03;5.88;;;3.35;;
75195;SDS011;63773;42.282;22.782;2023-05-21T14:11:29;9.63;;;3.80;;
75195;SDS011;63773;42.282;22.782;2023-05-21T14:13:56;9.65;;;3.53;;
75195;SDS011;63773;42.282;22.782;2023-05-21T14:16:22;7.50;;;3.35;;
75195;SDS011;63773;42.282;22.782;2023-05-21T14:18:51;7.43;;;3.70;;
75195;SDS011;63773;42.282;22.782;2023-05-21T14:21:17;9.75;;;4.97;;
75195;SDS011;63773;42.282;22.782;2023-05-21T14:23:42;5.72;;;2.75;;
75195;SDS011;63773;42.282;22.782;2023-05-21T14:26:08;9.50;;;3.72;;
75195;SDS011;63773;42.282;22.782;2023-05-21T14:28:33;7.43;;;3.38;;
75195;SDS011;63773;42.282;22.782;2023-05-21T14:30:58;7.53;;;3.58;;
75195;SDS011;63773;42.282;22.782;2023-05-21T14:33:24;9.20;;;3.30;;
75195;SDS011;63773;42.282;22.782;2023-05-21T14:35:49;7.55;;;3.03;;
75195;SDS011;63773;42.282;22.782;2023-05-21T14:38:15;8.25;;;3.17;;
75195;SDS011;63773;42.282;22.782;2023-05-21T14:40:40;5.68;;;3.38;;
75195;SDS011;63773;42.282;22.782;2023-05-21T14:43:06;7.90;;;3.55;;
75195;SDS011;63773;42.282;22.782;2023-05-21T14:45:51;6.55;;;2.95;;
75195;SDS011;63773;42.282;22.782;2023-05-21T14:48:16;7.45;;;3.55;;
75195;SDS011;63773;42.282;22.782;2023-05-21T14:50:46;7.18;;;3.30;;
75195;SDS011;63773;42.282;22.782;2023-05-21T14:53:12;8.45;;;3.53;;
75195;SDS011;63773;42.282;22.782;2023-05-21T14:55:37;11.45;;;3.30;;
75195;SDS011;63773;42.282;22.782;2023-05-21T14:58:03;6.93;;;3.42;;
75195;SDS011;63773;42.282;22.782;2023-05-21T15:00:29;7.82;;;3.10;;
75195;SDS011;63773;42.282;22.782;2023-05-21T15:02:56;8.00;;;3.80;;
75195;SDS011;63773;42.282;22.782;2023-05-21T15:05:21;5.07;;;2.97;;
75195;SDS011;63773;42.282;22.782;2023-05-21T15:07:47;6.97;;;3.80;;
75195;SDS011;63773;42.282;22.782;2023-05-21T15:10:12;8.18;;;3.72;;
75195;SDS011;63773;42.282;22.782;2023-05-21T15:12:38;5.97;;;3.20;;
75195;SDS011;63773;42.282;22.782;2023-05-21T15:15:04;6.45;;;2.75;;
75195;SDS011;63773;42.282;22.782;2023-05-21T15:17:31;8.27;;;3.75;;
75195;SDS011;63773;42.282;22.782;2023-05-21T15:19:57;9.13;;;3.60;;
75195;SDS011;63773;42.282;22.782;2023-05-21T15:22:25;5.75;;;3.38;;
75195;SDS011;63773;42.282;22.782;2023-05-21T15:24:51;6.63;;;3.63;;
75195;SDS011;63773;42.282;22.782;2023-05-21T15:27:16;8.35;;;3.03;;